Doutor Ulysses, Brazil
Current Conditions -  °F | °C
As of 7:00 AM on Monday 24 Nov 2014 (Local Time) from SBBI Reporting Station
Broken Clouds Broken Clouds  
Wind Chill: 63°   Ceiling: 800
Heat Index: 63°   Visibility: 6mi
Dew Point: 59°   Wind: 8mph
Humidity: 88%   Direction: 50°NE
Pressure: 30.09"   Gusts: NA
Location:  24.57°S, 49.42°W
Report Text: SBBI 240900Z 05007KT 9999 BKN008 BKN012 17/15 Q1019
Loading
Personal Weather Stations






























Interactive Weather Map New forecast layout! Learn more

10-Day Weather Forecast

Advertisements
Track Severe Weather on mobile